Time;durP1;ratioP1;P1;durP2;ratioP2;P2;SDS_P1;SDS_P2;PMS_P1;PMS_P2;Temp;Humidity;BMP_temperature;BMP_pressure;BME280_temperature;BME280_humidity;BME280_pressure;Samples;Min_cycle;Max_cycle;Signal;HPM_P1;HPM_P2
2022/03/02 00:00:45;;;;;;;46.97;25.35;;;5.50;99.90;;;;;;5100316;28;20479;-82
2022/03/02 00:03:11;;;;;;;43.80;26.05;;;5.50;99.90;;;;;;5104507;28;20035;-82
2022/03/02 00:05:36;;;;;;;41.30;24.77;;;5.50;99.90;;;;;;5104355;28;20384;-82
2022/03/02 00:08:03;;;;;;;42.88;25.38;;;5.50;99.90;;;;;;5091175;28;20016;-82
2022/03/02 00:10:29;;;;;;;42.13;25.73;;;5.50;99.90;;;;;;5084069;28;20110;-82
2022/03/02 00:12:55;;;;;;;41.90;24.60;;;5.50;99.90;;;;;;5099184;28;20115;-82
2022/03/02 00:15:21;;;;;;;41.85;25.48;;;5.50;99.90;;;;;;5101836;28;20103;-82
2022/03/02 00:17:47;;;;;;;44.65;25.95;;;5.50;99.90;;;;;;5102205;28;20031;-82
2022/03/02 00:20:13;;;;;;;43.25;25.42;;;5.50;99.90;;;;;;5103785;28;20405;-82
2022/03/02 00:22:39;;;;;;;44.70;26.08;;;5.50;99.90;;;;;;5105637;28;20128;-82
2022/03/02 00:25:07;;;;;;;41.72;25.48;;;5.40;99.90;;;;;;5101253;28;20397;-82
2022/03/02 00:27:33;;;;;;;45.88;26.75;;;5.40;99.90;;;;;;5106948;28;20481;-81
2022/03/02 00:29:59;;;;;;;42.53;25.30;;;5.40;99.90;;;;;;5101528;28;20039;-82
2022/03/02 00:32:25;;;;;;;43.28;25.55;;;5.40;99.90;;;;;;5101316;28;20036;-82
2022/03/02 00:34:51;;;;;;;44.58;26.42;;;5.40;99.90;;;;;;5084095;28;20023;-82
2022/03/02 00:37:17;;;;;;;45.13;26.00;;;5.40;99.90;;;;;;5095834;28;20363;-82
2022/03/02 00:39:43;;;;;;;43.45;25.70;;;5.30;99.90;;;;;;5068889;28;20031;-81
2022/03/02 00:42:10;;;;;;;51.72;27.50;;;5.30;99.90;;;;;;5105830;28;20126;-82
2022/03/02 00:44:36;;;;;;;40.75;25.17;;;5.30;99.90;;;;;;5102722;28;20062;-82
2022/03/02 00:47:04;;;;;;;43.90;25.63;;;5.30;99.90;;;;;;5106878;28;20080;-82
2022/03/02 00:49:31;;;;;;;42.72;26.30;;;5.30;99.90;;;;;;5082283;28;20046;-82
2022/03/02 00:51:57;;;;;;;47.75;26.30;;;5.20;99.90;;;;;;5084781;28;20024;-81
2022/03/02 00:54:23;;;;;;;42.22;26.35;;;5.20;99.90;;;;;;5076019;28;20415;-82
2022/03/02 00:56:49;;;;;;;48.55;26.92;;;5.20;99.90;;;;;;5101943;28;20020;-82
2022/03/02 00:59:15;;;;;;;45.88;27.45;;;5.20;99.90;;;;;;5081507;28;20019;-82
2022/03/02 01:01:41;;;;;;;43.67;25.80;;;5.10;99.90;;;;;;5101741;28;20154;-82
2022/03/02 01:04:07;;;;;;;43.42;26.23;;;5.10;99.90;;;;;;5104661;28;20122;-81
2022/03/02 01:06:33;;;;;;;46.78;27.13;;;5.10;99.90;;;;;;5103325;28;20026;-82
2022/03/02 01:08:59;;;;;;;45.33;25.48;;;5.10;99.90;;;;;;5118993;27;20024;-81
2022/03/02 01:11:24;;;;;;;46.35;25.73;;;5.10;99.90;;;;;;5082234;28;20114;-82
2022/03/02 01:13:50;;;;;;;46.03;26.25;;;5.10;99.90;;;;;;5106931;28;21689;-82
2022/03/02 01:16:16;;;;;;;44.13;26.35;;;5.10;99.90;;;;;;5104171;28;20031;-82
2022/03/02 01:18:42;;;;;;;42.00;25.58;;;5.10;99.90;;;;;;5104941;28;20063;-82
2022/03/02 01:21:08;;;;;;;46.00;25.60;;;5.10;99.90;;;;;;5068753;28;20032;-82
2022/03/02 01:23:34;;;;;;;42.67;26.98;;;5.00;99.90;;;;;;5118709;28;20062;-82
2022/03/02 01:26:00;;;;;;;45.70;26.73;;;5.10;99.90;;;;;;5093541;28;20957;-82
2022/03/02 01:28:25;;;;;;;47.35;28.15;;;5.10;99.90;;;;;;5100232;28;20118;-82
2022/03/02 01:30:51;;;;;;;45.88;26.85;;;5.10;99.90;;;;;;5085082;28;20154;-82
2022/03/02 01:33:17;;;;;;;46.42;27.20;;;5.10;99.90;;;;;;5085649;28;20076;-82
2022/03/02 01:35:42;;;;;;;45.10;25.73;;;5.10;99.90;;;;;;5102085;28;20019;-81
2022/03/02 01:38:08;;;;;;;45.50;25.42;;;5.10;99.90;;;;;;5098687;28;20481;-82
2022/03/02 01:40:34;;;;;;;41.65;24.70;;;5.10;99.90;;;;;;5099831;28;20027;-81
2022/03/02 01:43:00;;;;;;;42.13;25.42;;;5.10;99.90;;;;;;5102964;28;20059;-82
2022/03/02 01:45:26;;;;;;;43.70;26.88;;;5.10;99.90;;;;;;5100499;28;20043;-82
2022/03/02 01:47:51;;;;;;;42.95;25.38;;;5.10;99.90;;;;;;5079167;28;20024;-82
2022/03/02 01:50:17;;;;;;;42.70;25.52;;;5.10;99.90;;;;;;5105905;28;20032;-82
2022/03/02 01:52:43;;;;;;;45.92;26.17;;;5.10;99.90;;;;;;5087930;28;20130;-82
2022/03/02 01:55:10;;;;;;;43.92;25.33;;;5.20;99.90;;;;;;5101848;28;20074;-82
2022/03/02 01:57:36;;;;;;;43.92;25.38;;;5.20;99.90;;;;;;5105146;28;20094;-82
2022/03/02 02:00:07;;;;;;;47.90;26.90;;;5.10;99.90;;;;;;5099492;28;20036;-82
2022/03/02 02:02:33;;;;;;;46.50;25.58;;;5.10;99.90;;;;;;5098273;28;20031;-82
2022/03/02 02:04:58;;;;;;;44.53;26.42;;;5.10;99.90;;;;;;5097361;28;20020;-81
2022/03/02 02:07:25;;;;;;;46.85;27.08;;;5.20;99.90;;;;;;5108149;28;20042;-83
2022/03/02 02:09:52;;;;;;;45.25;26.23;;;5.20;99.90;;;;;;5112411;28;20024;-82
2022/03/02 02:12:18;;;;;;;45.00;26.02;;;5.20;99.90;;;;;;5112360;28;20035;-82
2022/03/02 02:14:44;;;;;;;48.25;26.20;;;5.20;99.90;;;;;;5112143;28;20030;-82
2022/03/02 02:17:10;;;;;;;42.95;25.33;;;5.10;99.90;;;;;;5112883;28;20418;-83
2022/03/02 02:19:36;;;;;;;45.42;25.83;;;5.10;99.90;;;;;;5095201;28;20019;-83
2022/03/02 02:22:02;;;;;;;47.38;26.60;;;5.00;99.90;;;;;;5113472;28;20130;-83
2022/03/02 02:24:27;;;;;;;48.63;27.13;;;5.00;99.90;;;;;;5114366;28;20020;-83
2022/03/02 02:26:54;;;;;;;46.03;26.70;;;5.00;99.90;;;;;;5116685;28;20027;-82
2022/03/02 02:29:23;;;;;;;43.95;25.70;;;5.00;99.90;;;;;;5117367;28;20042;-82
2022/03/02 02:31:49;;;;;;;45.15;26.25;;;4.90;99.90;;;;;;5117332;28;20054;-83
2022/03/02 02:34:15;;;;;;;46.08;26.67;;;4.90;99.90;;;;;;5117163;28;20051;-82
2022/03/02 02:36:42;;;;;;;47.45;26.40;;;4.90;99.90;;;;;;5116394;28;20011;-82
2022/03/02 02:39:09;;;;;;;47.03;26.80;;;4.80;99.90;;;;;;5116390;28;20025;-82
2022/03/02 02:41:35;;;;;;;48.88;26.85;;;4.80;99.90;;;;;;5116364;28;20035;-83
2022/03/02 02:44:00;;;;;;;50.80;28.33;;;4.80;99.90;;;;;;5117739;28;20363;-82
2022/03/02 02:46:26;;;;;;;52.65;29.30;;;4.80;99.90;;;;;;5117362;28;20024;-82
2022/03/02 02:48:52;;;;;;;47.97;27.77;;;4.70;99.90;;;;;;5116014;28;20020;-82
2022/03/02 02:51:18;;;;;;;46.67;27.35;;;4.70;99.90;;;;;;5115983;28;20475;-82
2022/03/02 02:53:43;;;;;;;49.05;27.27;;;4.80;99.90;;;;;;5099645;28;20085;-82
2022/03/02 02:56:09;;;;;;;49.35;28.55;;;4.70;99.90;;;;;;5117678;28;20126;-82
2022/03/02 02:58:35;;;;;;;47.25;26.40;;;4.70;99.90;;;;;;5116033;28;20422;-83
2022/03/02 03:01:02;;;;;;;51.10;27.42;;;4.70;99.90;;;;;;5099503;28;20107;-82
2022/03/02 03:03:27;;;;;;;48.72;27.38;;;4.70;99.90;;;;;;5115906;28;20127;-82
2022/03/02 03:05:53;;;;;;;53.22;27.95;;;4.70;99.90;;;;;;5098751;28;20474;-82
2022/03/02 03:08:19;;;;;;;48.08;26.60;;;4.80;99.90;;;;;;5098696;28;20470;-82
2022/03/02 03:10:45;;;;;;;55.67;29.42;;;4.70;99.90;;;;;;5098273;28;20102;-82
2022/03/02 03:13:11;;;;;;;48.70;28.00;;;4.70;99.90;;;;;;5115219;28;20110;-82
2022/03/02 03:15:38;;;;;;;50.83;28.73;;;4.80;99.90;;;;;;5117137;28;20046;-82
2022/03/02 03:18:06;;;;;;;47.80;28.42;;;4.70;99.90;;;;;;5115666;28;20028;-82
2022/03/02 03:20:33;;;;;;;50.88;27.48;;;4.70;99.90;;;;;;5116635;28;20102;-83
2022/03/02 03:23:00;;;;;;;49.28;29.20;;;4.70;99.90;;;;;;5115304;28;20027;-82
2022/03/02 03:25:26;;;;;;;55.22;29.08;;;4.70;99.90;;;;;;5116080;28;20024;-82
2022/03/02 03:27:53;;;;;;;50.83;28.27;;;4.70;99.90;;;;;;5115413;28;20061;-82
2022/03/02 03:30:21;;;;;;;51.75;28.67;;;4.70;99.90;;;;;;5117067;27;20024;-82
2022/03/02 03:32:47;;;;;;;56.10;30.60;;;4.60;99.90;;;;;;5097930;28;20371;-82
2022/03/02 03:35:17;;;;;;;48.38;27.77;;;4.60;99.90;;;;;;5115684;28;20016;-82
2022/03/02 03:37:44;;;;;;;50.83;27.98;;;4.60;99.90;;;;;;5114638;28;20027;-81
2022/03/02 03:40:11;;;;;;;52.05;29.08;;;4.60;99.90;;;;;;5115877;27;20463;-83
2022/03/02 03:42:38;;;;;;;51.38;28.98;;;4.60;99.90;;;;;;5098022;28;20059;-82
2022/03/02 03:45:05;;;;;;;48.38;27.95;;;4.60;99.90;;;;;;5115913;28;20460;-82
2022/03/02 03:47:30;;;;;;;53.15;28.15;;;4.60;99.90;;;;;;5115203;28;20020;-82
2022/03/02 03:49:56;;;;;;;50.30;28.55;;;4.50;99.90;;;;;;5097692;28;20122;-82
2022/03/02 03:52:22;;;;;;;52.03;28.80;;;4.60;99.90;;;;;;5098456;28;20034;-82
2022/03/02 03:54:48;;;;;;;51.58;28.67;;;4.50;99.90;;;;;;5114334;28;20059;-82
2022/03/02 03:57:13;;;;;;;51.10;29.13;;;4.50;99.90;;;;;;5098115;28;20026;-82
2022/03/02 03:59:39;;;;;;;57.50;31.67;;;4.50;99.90;;;;;;5115766;28;20467;-83
2022/03/02 04:02:05;;;;;;;55.80;30.05;;;4.50;99.90;;;;;;5115821;28;20031;-82
2022/03/02 04:04:30;;;;;;;52.88;30.75;;;4.50;99.90;;;;;;5097784;28;20371;-82
2022/03/02 04:06:56;;;;;;;54.60;30.75;;;4.50;99.90;;;;;;5114056;28;20481;-82
2022/03/02 04:09:22;;;;;;;65.07;31.10;;;4.50;99.90;;;;;;5097606;28;20344;-82
2022/03/02 04:11:47;;;;;;;58.00;31.42;;;4.40;99.90;;;;;;5115118;28;20094;-82
2022/03/02 04:14:13;;;;;;;55.83;30.25;;;4.40;99.90;;;;;;5115539;28;20027;-83
2022/03/02 04:16:39;;;;;;;55.72;30.58;;;4.40;99.90;;;;;;5114410;28;20079;-82
2022/03/02 04:19:04;;;;;;;56.33;31.83;;;4.40;99.90;;;;;;5114244;28;20031;-82
2022/03/02 04:21:31;;;;;;;54.10;30.38;;;4.40;99.90;;;;;;5114366;28;20092;-82
2022/03/02 04:23:57;;;;;;;56.97;32.05;;;4.30;99.90;;;;;;5115934;28;20032;-82
2022/03/02 04:26:22;;;;;;;56.10;30.00;;;4.30;99.90;;;;;;5080638;28;20029;-82
2022/03/02 04:28:48;;;;;;;58.03;32.53;;;4.30;99.90;;;;;;5097079;28;20023;-82
2022/03/02 04:31:14;;;;;;;62.20;31.98;;;4.30;99.90;;;;;;5114488;28;20028;-82
2022/03/02 04:33:39;;;;;;;55.95;31.85;;;4.20;99.90;;;;;;5114317;28;20028;-82
2022/03/02 04:36:06;;;;;;;57.42;32.95;;;4.20;99.90;;;;;;5114843;28;20028;-82
2022/03/02 04:38:32;;;;;;;54.92;31.52;;;4.20;99.90;;;;;;5115037;28;20107;-82
2022/03/02 04:40:58;;;;;;;56.08;30.75;;;4.10;99.90;;;;;;5097074;28;20453;-83
2022/03/02 04:43:24;;;;;;;60.03;31.63;;;4.10;99.90;;;;;;5114779;28;20032;-82
2022/03/02 04:45:50;;;;;;;58.63;31.88;;;4.10;99.90;;;;;;5079773;28;20502;-81
2022/03/02 04:48:15;;;;;;;55.85;30.02;;;4.10;99.90;;;;;;5096636;28;20051;-82
2022/03/02 04:50:41;;;;;;;58.97;31.75;;;4.00;99.90;;;;;;5114197;28;20059;-82
2022/03/02 04:53:07;;;;;;;58.30;31.08;;;4.00;99.90;;;;;;5113553;28;20059;-82
2022/03/02 04:55:32;;;;;;;61.28;31.42;;;3.90;99.90;;;;;;5096191;28;20043;-82
2022/03/02 04:58:00;;;;;;;60.35;32.63;;;3.80;99.90;;;;;;5096701;28;20024;-82
2022/03/02 05:00:28;;;;;;;55.95;31.20;;;3.80;99.90;;;;;;5113452;28;20031;-82
2022/03/02 05:02:55;;;;;;;53.53;30.48;;;3.70;99.90;;;;;;5113231;28;20573;-82
2022/03/02 05:05:22;;;;;;;56.58;30.40;;;3.60;99.90;;;;;;5096285;28;20024;-82
2022/03/02 05:07:48;;;;;;;53.50;31.10;;;3.50;99.90;;;;;;5115098;28;20019;-82
2022/03/02 05:10:16;;;;;;;56.63;29.73;;;3.40;99.90;;;;;;5096354;28;20019;-82
2022/03/02 05:12:42;;;;;;;63.10;33.08;;;3.40;99.90;;;;;;5096400;28;20024;-82
2022/03/02 05:15:09;;;;;;;56.20;32.15;;;3.30;99.90;;;;;;5113621;28;20098;-82
2022/03/02 05:17:35;;;;;;;58.22;31.60;;;3.30;99.90;;;;;;5112784;28;20035;-80
2022/03/02 05:20:02;;;;;;;61.03;33.92;;;3.30;99.90;;;;;;5114622;28;20053;-81
2022/03/02 05:22:28;;;;;;;60.05;33.50;;;3.30;99.90;;;;;;5112900;28;20057;-80
2022/03/02 05:24:53;;;;;;;59.78;32.85;;;3.30;99.90;;;;;;5095712;28;20032;-80
2022/03/02 05:27:21;;;;;;;56.78;31.98;;;3.30;99.90;;;;;;5112902;28;20361;-79
2022/03/02 05:29:47;;;;;;;55.40;30.38;;;3.30;99.90;;;;;;5112795;28;20038;-79
2022/03/02 05:32:13;;;;;;;55.95;30.73;;;3.30;99.90;;;;;;5113774;28;20027;-79
2022/03/02 05:34:39;;;;;;;58.00;31.80;;;3.20;99.90;;;;;;5112689;28;20034;-79
2022/03/02 05:37:05;;;;;;;58.42;31.60;;;3.20;99.90;;;;;;5096013;28;20027;-80
2022/03/02 05:39:31;;;;;;;58.22;32.70;;;3.20;99.90;;;;;;5113099;28;20485;-81
2022/03/02 05:41:56;;;;;;;59.03;33.70;;;3.20;99.90;;;;;;5112439;28;20026;-80
2022/03/02 05:44:22;;;;;;;61.40;33.20;;;3.20;99.90;;;;;;5095831;28;20023;-80
2022/03/02 05:46:49;;;;;;;59.38;32.00;;;3.20;99.90;;;;;;5113745;28;20030;-80
2022/03/02 05:49:15;;;;;;;62.30;34.50;;;3.20;99.90;;;;;;5112791;28;20077;-80
2022/03/02 05:51:41;;;;;;;61.10;32.85;;;3.20;99.90;;;;;;5114298;28;20062;-79
2022/03/02 05:54:11;;;;;;;56.90;30.60;;;3.20;99.90;;;;;;5112418;28;20047;-80
2022/03/02 05:56:37;;;;;;;60.45;32.40;;;3.20;99.90;;;;;;5112419;28;20118;-80
2022/03/02 05:59:08;;;;;;;59.70;32.17;;;3.20;99.90;;;;;;5113447;28;20024;-80
2022/03/02 06:01:34;;;;;;;53.60;31.43;;;3.20;99.90;;;;;;5112181;28;20046;-80
2022/03/02 06:04:01;;;;;;;65.18;34.13;;;3.10;99.90;;;;;;5114029;28;20470;-80
2022/03/02 06:06:29;;;;;;;58.33;32.55;;;3.20;99.90;;;;;;5096548;28;20031;-80
2022/03/02 06:08:57;;;;;;;58.35;30.35;;;3.20;99.90;;;;;;5095718;28;20412;-80
2022/03/02 06:11:23;;;;;;;56.08;30.35;;;3.10;99.90;;;;;;5112492;28;20023;-80
2022/03/02 06:13:50;;;;;;;59.22;31.20;;;3.10;99.90;;;;;;5112668;28;20023;-80
2022/03/02 06:16:16;;;;;;;62.97;34.45;;;3.00;99.90;;;;;;5113388;28;20035;-80
2022/03/02 06:18:42;;;;;;;59.67;33.13;;;3.00;99.90;;;;;;5112400;28;20028;-80
2022/03/02 06:21:10;;;;;;;62.42;33.25;;;3.00;99.90;;;;;;5112317;28;20450;-80
2022/03/02 06:23:36;;;;;;;58.13;31.48;;;2.90;99.90;;;;;;5113531;28;20372;-80
2022/03/02 06:26:02;;;;;;;61.38;31.77;;;2.80;99.90;;;;;;5112834;28;20034;-80
2022/03/02 06:28:27;;;;;;;59.85;32.75;;;2.80;99.90;;;;;;5112420;28;20024;-80
2022/03/02 06:30:53;;;;;;;58.63;30.88;;;2.80;99.90;;;;;;5113643;28;20055;-80
2022/03/02 06:33:20;;;;;;;57.13;32.47;;;2.70;99.90;;;;;;5113410;28;20359;-80
2022/03/02 06:35:48;;;;;;;58.35;31.60;;;2.60;99.90;;;;;;5113719;28;20023;-80
2022/03/02 06:38:16;;;;;;;60.72;31.38;;;2.70;99.90;;;;;;5112344;28;20020;-80
2022/03/02 06:41:02;;;;;;;59.60;32.55;;;2.60;99.90;;;;;;5113559;28;20027;-80
2022/03/02 06:43:33;;;;;;;57.22;31.60;;;2.50;99.90;;;;;;5113902;28;20104;-80
2022/03/02 06:46:40;;;;;;;65.50;34.15;;;2.50;99.90;;;;;;5112553;28;20016;-80
2022/03/02 06:49:46;;;;;;;65.75;34.25;;;2.60;99.90;;;;;;5113479;28;20368;-80
2022/03/02 06:52:18;;;;;;;55.10;31.27;;;2.60;99.90;;;;;;5113446;28;20024;-81
2022/03/02 06:54:48;;;;;;;60.53;32.72;;;2.60;99.90;;;;;;5111837;28;20476;-80
2022/03/02 06:57:19;;;;;;;60.28;31.17;;;2.50;99.90;;;;;;5111675;28;20375;-80
2022/03/02 06:59:52;;;;;;;64.75;33.08;;;2.50;99.90;;;;;;5113049;28;20028;-80
2022/03/02 07:02:28;;;;;;;60.40;32.85;;;2.50;99.90;;;;;;5113450;28;20023;-80
2022/03/02 07:04:55;;;;;;;57.40;30.52;;;2.50;99.90;;;;;;5113056;28;20055;-80
2022/03/02 07:07:21;;;;;;;58.25;31.75;;;2.50;99.90;;;;;;5111732;28;20032;-80
2022/03/02 07:09:46;;;;;;;61.72;33.83;;;2.40;99.90;;;;;;5113195;28;20027;-80
2022/03/02 07:12:12;;;;;;;64.82;32.97;;;2.40;99.90;;;;;;5115591;28;20076;-80
2022/03/02 07:14:38;;;;;;;61.90;32.90;;;2.40;99.90;;;;;;5117077;28;20379;-81
2022/03/02 07:17:05;;;;;;;61.78;31.15;;;2.40;99.90;;;;;;5115495;28;20360;-81
2022/03/02 07:19:31;;;;;;;59.67;32.17;;;2.40;99.90;;;;;;5115446;28;20024;-81
2022/03/02 07:22:04;;;;;;;60.15;33.45;;;2.40;99.90;;;;;;5116609;28;20031;-80
2022/03/02 07:24:38;;;;;;;65.68;34.63;;;2.40;99.90;;;;;;5115391;28;20034;-80
2022/03/02 07:27:04;;;;;;;64.30;33.63;;;2.50;99.90;;;;;;5116448;27;20571;-80
2022/03/02 07:29:35;;;;;;;59.85;31.52;;;2.50;99.90;;;;;;5116059;28;20031;-79
2022/03/02 07:32:02;;;;;;;64.40;33.47;;;2.60;99.90;;;;;;5116249;28;20505;-84
2022/03/02 07:34:30;;;;;;;62.05;33.40;;;2.60;99.90;;;;;;5114906;28;20043;-81
2022/03/02 07:36:59;;;;;;;63.22;33.53;;;2.60;99.90;;;;;;5115906;28;20028;-81
2022/03/02 07:39:26;;;;;;;59.97;32.08;;;2.70;99.90;;;;;;5114647;28;20036;-80
2022/03/02 07:41:52;;;;;;;62.60;32.80;;;2.70;99.90;;;;;;5114866;28;20039;-81
2022/03/02 07:44:17;;;;;;;61.92;32.90;;;2.70;99.90;;;;;;5114605;28;20016;-83
2022/03/02 07:46:43;;;;;;;66.72;34.80;;;2.70;99.90;;;;;;5115538;28;20032;-83
2022/03/02 07:49:10;;;;;;;59.80;33.17;;;2.80;99.90;;;;;;5098634;28;20023;-81
2022/03/02 07:51:38;;;;;;;62.25;32.25;;;2.80;99.90;;;;;;5115732;28;20398;-82
2022/03/02 07:54:05;;;;;;;63.30;33.25;;;2.90;99.90;;;;;;5115069;28;20044;-81
2022/03/02 07:56:33;;;;;;;59.85;32.75;;;2.90;99.90;;;;;;5115152;28;20016;-82
2022/03/02 07:59:04;;;;;;;59.10;32.35;;;3.00;99.90;;;;;;5115728;28;20398;-80
2022/03/02 08:01:36;;;;;;;60.05;32.42;;;3.10;99.90;;;;;;5114684;28;20080;-81
2022/03/02 08:04:04;;;;;;;;;;;3.20;99.90;;;;;;5117137;28;20020;-82
2022/03/02 08:06:31;;;;;;;56.95;31.77;;;3.20;99.90;;;;;;5114722;28;19904;-81
2022/03/02 08:08:58;;;;;;;57.05;31.40;;;3.30;99.90;;;;;;5097484;28;20088;-82
2022/03/02 08:11:24;;;;;;;55.13;30.40;;;3.40;99.90;;;;;;5114702;28;20492;-81
2022/03/02 08:13:50;;;;;;;57.97;31.58;;;3.50;99.90;;;;;;5115077;28;20023;-81
2022/03/02 08:16:17;;;;;;;56.60;31.45;;;3.60;99.90;;;;;;5114322;28;20038;-81
2022/03/02 08:18:43;;;;;;;56.70;30.80;;;3.60;99.90;;;;;;5097792;28;20023;-80
2022/03/02 08:21:15;;;;;;;57.58;30.50;;;3.60;99.90;;;;;;5098072;28;20470;-82
2022/03/02 08:23:44;;;;;;;59.85;31.83;;;3.70;99.90;;;;;;5114825;28;20168;-81
2022/03/02 08:26:12;;;;;;;58.30;31.10;;;3.80;99.90;;;;;;5097325;28;20375;-81
2022/03/02 08:28:43;;;;;;;51.55;29.60;;;3.90;99.90;;;;;;5097179;28;20474;-81
2022/03/02 08:31:10;;;;;;;57.65;31.35;;;4.00;99.90;;;;;;5114336;28;20050;-80
2022/03/02 08:33:37;;;;;;;56.25;29.25;;;4.10;99.90;;;;;;5095797;28;20027;-82
2022/03/02 08:36:03;;;;;;;53.15;28.55;;;4.10;99.90;;;;;;5113949;28;20028;-80
2022/03/02 08:38:29;;;;;;;50.78;29.08;;;4.20;99.90;;;;;;5113573;28;20088;-81
2022/03/02 08:40:55;;;;;;;52.22;28.65;;;4.30;99.90;;;;;;5080623;28;20452;-81
2022/03/02 08:43:21;;;;;;;52.70;28.05;;;4.40;99.90;;;;;;5096050;28;20031;-81
2022/03/02 08:45:49;;;;;;;51.08;28.33;;;4.40;99.90;;;;;;5113837;28;20106;-82
2022/03/02 08:48:19;;;;;;;54.10;28.83;;;4.50;99.90;;;;;;5113628;28;20031;-81
2022/03/02 08:50:46;;;;;;;51.28;28.17;;;4.60;99.90;;;;;;5115712;28;20057;-82
2022/03/02 08:53:16;;;;;;;54.28;28.95;;;4.70;99.90;;;;;;5113904;28;20460;-83
2022/03/02 08:55:43;;;;;;;55.13;29.00;;;4.80;99.90;;;;;;5115619;28;20051;-84
2022/03/02 08:58:10;;;;;;;47.53;27.30;;;4.80;99.90;;;;;;5114932;28;20024;-83
2022/03/02 09:00:40;;;;;;;50.30;27.65;;;4.90;99.90;;;;;;5097281;28;20385;-84
2022/03/02 09:03:06;;;;;;;50.45;27.55;;;4.90;99.90;;;;;;5097104;28;20057;-84
2022/03/02 09:05:33;;;;;;;50.90;27.27;;;5.00;99.90;;;;;;5096872;28;20028;-83
2022/03/02 09:07:59;;;;;;;46.92;26.52;;;5.10;99.90;;;;;;5112859;28;20055;-82
2022/03/02 09:10:25;;;;;;;49.75;26.83;;;5.20;99.90;;;;;;5113700;28;20059;-82
2022/03/02 09:12:51;;;;;;;46.58;25.45;;;5.30;99.90;;;;;;5114545;28;20040;-82
2022/03/02 09:15:17;;;;;;;47.15;26.98;;;5.30;99.90;;;;;;5113151;28;20039;-82
2022/03/02 09:17:43;;;;;;;42.67;26.25;;;5.40;99.90;;;;;;5113542;28;20028;-82
2022/03/02 09:20:11;;;;;;;46.30;25.48;;;5.50;99.90;;;;;;5114028;28;20498;-82
2022/03/02 09:22:39;;;;;;;46.95;25.40;;;5.80;99.90;;;;;;5096349;28;20441;-82
2022/03/02 09:25:06;;;;;;;43.83;24.90;;;6.30;99.90;;;;;;5113273;28;20031;-82
2022/03/02 09:27:36;;;;;;;41.20;24.20;;;7.50;99.90;;;;;;5095748;28;20024;-85
2022/03/02 09:30:12;;;;;;;38.70;22.80;;;8.90;99.90;;;;;;5112954;28;20079;-82
2022/03/02 09:32:41;;;;;;;39.83;22.48;;;10.20;99.90;;;;;;5113023;28;20049;-83
2022/03/02 09:35:14;;;;;;;40.50;22.70;;;9.90;99.90;;;;;;5113650;28;20051;-85
2022/03/02 09:37:43;;;;;;;37.55;21.83;;;9.80;99.90;;;;;;5112941;28;20035;-81
2022/03/02 09:40:22;;;;;;;34.17;21.65;;;9.50;99.90;;;;;;5113933;28;20051;-83
2022/03/02 09:43:01;;;;;;;44.97;22.50;;;8.90;99.90;;;;;;5113548;28;20024;-83
2022/03/02 09:45:29;;;;;;;35.53;21.80;;;8.80;99.90;;;;;;5113371;28;20348;-82
2022/03/02 09:47:57;;;;;;;34.30;20.20;;;8.70;99.90;;;;;;5114001;28;20027;-82
2022/03/02 09:50:26;;;;;;;36.80;21.52;;;8.70;99.90;;;;;;5114222;28;20027;-84
2022/03/02 09:52:54;;;;;;;38.22;20.80;;;8.90;99.90;;;;;;5113325;28;20044;-84
2022/03/02 09:55:24;;;;;;;37.40;20.55;;;8.90;99.90;;;;;;5095434;28;20101;-84
2022/03/02 09:57:56;;;;;;;36.25;21.35;;;9.00;99.90;;;;;;5097066;28;20114;-84
2022/03/02 10:00:24;;;;;;;37.05;21.50;;;9.50;99.90;;;;;;5114005;28;20068;-82
2022/03/02 10:02:55;;;;;;;32.90;20.48;;;10.70;99.90;;;;;;5095893;28;20035;-83
2022/03/02 10:05:23;;;;;;;35.75;20.88;;;11.60;92.00;;;;;;5113037;28;20047;-83
2022/03/02 10:07:54;;;;;;;34.67;20.33;;;13.00;92.00;;;;;;5113349;28;20077;-83
2022/03/02 10:10:24;;;;;;;32.53;20.08;;;14.00;72.30;;;;;;5113938;28;20110;-83
2022/03/02 10:13:03;;;;;;;32.15;19.48;;;14.80;62.70;;;;;;5114398;28;20038;-83
2022/03/02 10:15:31;;;;;;;34.38;19.77;;;15.80;57.80;;;;;;5113110;28;20023;-84
2022/03/02 10:17:58;;;;;;;31.55;18.83;;;16.40;54.40;;;;;;5112437;28;20535;-82
2022/03/02 10:20:27;;;;;;;31.38;19.73;;;16.40;51.20;;;;;;5112702;28;20468;-82
2022/03/02 10:23:34;;;;;;;31.25;19.13;;;17.60;52.30;;;;;;5112468;28;20098;-83
2022/03/02 10:26:20;;;;;;;30.25;19.40;;;17.50;49.70;;;;;;5099231;28;20103;-84
2022/03/02 10:29:00;;;;;;;31.42;19.58;;;18.30;46.70;;;;;;5111612;28;20036;-83
2022/03/02 10:31:44;;;;;;;30.60;18.87;;;17.70;47.40;;;;;;5114043;28;20032;-84
2022/03/02 10:34:28;;;;;;;30.25;19.25;;;17.10;43.60;;;;;;5112799;28;20077;-83
2022/03/02 10:37:19;;;;;;;26.77;18.27;;;18.30;44.80;;;;;;5113520;28;20031;-83
2022/03/02 10:40:05;;;;;;;28.55;17.75;;;18.40;44.20;;;;;;5112360;28;20041;-81
2022/03/02 10:42:43;;;;;;;25.70;17.38;;;17.10;41.70;;;;;;5113106;28;20477;-82
2022/03/02 10:45:36;;;;;;;30.55;17.02;;;17.00;41.90;;;;;;5114896;28;20053;-81
2022/03/02 10:48:12;;;;;;;28.60;18.23;;;17.30;42.00;;;;;;5117789;28;20065;-81
2022/03/02 10:50:40;;;;;;;27.83;18.23;;;18.00;42.80;;;;;;5117335;28;20110;-86
2022/03/02 10:53:16;;;;;;;30.75;18.63;;;18.70;41.20;;;;;;5099600;28;20034;-80
2022/03/02 10:55:47;;;;;;;28.63;18.50;;;19.70;42.20;;;;;;5115748;28;20044;-81
2022/03/02 10:58:14;;;;;;;27.10;17.40;;;18.50;40.00;;;;;;5116092;28;20047;-81
2022/03/02 11:00:41;;;;;;;27.00;17.85;;;19.70;39.80;;;;;;5115616;28;20016;-81
2022/03/02 11:03:08;;;;;;;26.30;16.77;;;20.20;40.20;;;;;;5082172;28;20130;-82
2022/03/02 11:05:35;;;;;;;25.60;15.75;;;20.90;38.60;;;;;;5115066;28;20043;-80
2022/03/02 11:08:02;;;;;;;27.98;16.33;;;20.80;36.70;;;;;;5115609;28;20024;-81
2022/03/02 11:10:33;;;;;;;27.30;16.88;;;21.40;35.40;;;;;;5115537;28;20048;-79
2022/03/02 11:13:00;;;;;;;26.27;15.95;;;21.20;34.20;;;;;;5115943;28;20024;-80
2022/03/02 11:15:27;;;;;;;25.88;16.38;;;20.90;34.80;;;;;;5116795;28;20019;-83
2022/03/02 11:17:56;;;;;;;25.08;17.08;;;20.00;33.10;;;;;;5116811;28;20051;-81
2022/03/02 11:20:24;;;;;;;28.15;17.30;;;20.70;35.70;;;;;;5116727;28;20027;-80
2022/03/02 11:23:00;;;;;;;27.77;16.45;;;20.90;32.10;;;;;;5115458;28;20030;-87
2022/03/02 11:25:46;;;;;;;25.00;16.55;;;21.80;34.80;;;;;;5115462;28;20024;-82
2022/03/02 11:28:15;;;;;;;26.50;16.15;;;21.30;32.60;;;;;;5117227;28;20027;-82
2022/03/02 11:30:46;;;;;;;26.42;17.88;;;21.20;33.50;;;;;;5114829;28;20024;-81
2022/03/02 11:33:12;;;;;;;27.50;17.65;;;20.50;36.60;;;;;;5115798;28;20131;-81
2022/03/02 11:35:37;;;;;;;25.63;17.13;;;20.40;36.70;;;;;;5115302;28;20168;-81
2022/03/02 11:38:06;;;;;;;26.52;17.15;;;19.40;36.00;;;;;;5115107;28;20532;-81
2022/03/02 11:40:44;;;;;;;28.92;16.70;;;19.80;36.90;;;;;;5115218;28;20024;-84
2022/03/02 11:43:28;;;;;;;23.75;16.15;;;20.50;35.50;;;;;;5114823;28;20016;-81
2022/03/02 11:45:58;;;;;;;29.30;18.30;;;20.90;34.90;;;;;;5115802;28;20110;-82
2022/03/02 11:48:43;;;;;;;29.63;18.13;;;21.00;35.70;;;;;;5114836;28;20365;-81
2022/03/02 11:51:23;;;;;;;26.90;16.92;;;20.90;35.10;;;;;;5115119;28;20024;-81
2022/03/02 11:54:00;;;;;;;25.42;16.80;;;21.10;35.60;;;;;;5097768;28;20044;-82
2022/03/02 11:56:28;;;;;;;26.73;16.88;;;20.70;35.20;;;;;;5113427;28;20031;-81
2022/03/02 11:59:08;;;;;;;27.52;17.80;;;20.90;35.60;;;;;;5114994;28;20475;-82
2022/03/02 12:01:46;;;;;;;25.95;17.77;;;20.40;35.30;;;;;;5116294;28;20035;-82
2022/03/02 12:04:14;;;;;;;26.52;17.25;;;20.70;36.30;;;;;;5115481;28;20027;-86
2022/03/02 12:06:50;;;;;;;25.73;17.10;;;19.50;34.60;;;;;;5097156;28;20027;-81
2022/03/02 12:09:35;;;;;;;28.13;17.90;;;19.90;38.10;;;;;;5114072;28;20106;-81
2022/03/02 12:12:20;;;;;;;28.48;18.67;;;20.00;37.80;;;;;;5114232;28;20032;-81
2022/03/02 12:14:48;;;;;;;26.17;18.38;;;20.20;38.40;;;;;;5115023;28;20367;-82
2022/03/02 12:17:20;;;;;;;31.15;19.63;;;20.30;39.70;;;;;;5114233;28;20023;-81
2022/03/02 12:19:50;;;;;;;27.50;18.52;;;20.60;37.80;;;;;;5114511;28;20027;-79
2022/03/02 12:22:17;;;;;;;28.30;18.92;;;20.70;37.50;;;;;;5115851;28;20023;-81
2022/03/02 12:24:45;;;;;;;26.58;18.13;;;20.50;36.70;;;;;;5115382;28;20028;-82
2022/03/02 12:27:12;;;;;;;28.17;20.10;;;20.30;37.70;;;;;;5114020;28;20376;-80
2022/03/02 12:29:40;;;;;;;27.02;18.67;;;20.60;36.30;;;;;;5115005;28;20031;-81
2022/03/02 12:32:17;;;;;;;26.80;18.35;;;20.60;36.10;;;;;;5115213;28;20459;-81
2022/03/02 12:34:48;;;;;;;27.63;17.75;;;20.60;38.50;;;;;;5114301;28;20024;-80
2022/03/02 12:37:17;;;;;;;28.50;18.30;;;20.90;37.60;;;;;;5115681;28;20055;-80
2022/03/02 12:39:43;;;;;;;27.20;17.92;;;21.00;35.90;;;;;;5115165;28;20031;-80
2022/03/02 12:42:10;;;;;;;27.77;17.95;;;20.90;36.20;;;;;;5114281;28;20026;-83